Time;durP1;ratioP1;P1;durP2;ratioP2;P2;SDS_P1;SDS_P2;PMS_P1;PMS_P2;Temp;Humidity;BMP_temperature;BMP_pressure;BME280_temperature;BME280_humidity;BME280_pressure;Samples;Min_cycle;Max_cycle;Signal;HPM_P1;HPM_P2
2022/02/26 00:01:23;;;;;;;0.60;0.20;;;;;;;;;;4974925;28;20046;-57
2022/02/26 00:03:49;;;;;;;0.50;0.27;;;;;;;;;;4992556;28;20388;-57
2022/02/26 00:19:14;;;;;;;;;;;;;;;;;;4965957;28;20054;-58
2022/02/26 00:21:41;;;;;;;0.77;0.20;;;;;;;;;;4973098;28;19910;-56
2022/02/26 00:24:29;;;;;;;1.37;0.27;;;;;;;;;;4972854;28;20519;-57
2022/02/26 00:26:56;;;;;;;0.73;0.17;;;;;;;;;;4986550;28;20117;-57
2022/02/26 00:29:23;;;;;;;0.50;0.20;;;;;;;;;;4991298;28;20029;-55
2022/02/26 00:31:49;;;;;;;1.37;0.20;;;;;;;;;;4992324;28;20038;-58
2022/02/26 00:34:16;;;;;;;0.40;0.10;;;;;;;;;;4991005;28;20080;-53
2022/02/26 00:36:42;;;;;;;1.63;0.20;;;;;;;;;;4990914;28;20066;-54
2022/02/26 00:39:08;;;;;;;1.33;0.30;;;;;;;;;;4991075;28;20672;-57
2022/02/26 00:41:35;;;;;;;2.10;0.20;;;;;;;;;;4992111;28;20464;-55
2022/02/26 00:44:02;;;;;;;1.10;0.17;;;;;;;;;;4979605;28;20534;-57
2022/02/26 00:46:29;;;;;;;0.90;0.30;;;;;;;;;;4991780;28;20377;-55
2022/02/26 00:51:40;;;;;;;2.22;0.40;;;;;;;;;;4984025;28;20092;-57
2022/02/26 00:54:07;;;;;;;2.60;0.50;;;;;;;;;;4984689;28;20072;-57
2022/02/26 00:56:34;;;;;;;2.40;0.70;;;;;;;;;;4976630;28;20027;-57
2022/02/26 00:59:00;;;;;;;2.17;0.40;;;;;;;;;;4972257;28;20027;-58
2022/02/26 01:01:27;;;;;;;2.30;0.67;;;;;;;;;;4985110;28;20061;-58
2022/02/26 01:03:53;;;;;;;0.77;0.40;;;;;;;;;;4972235;28;20039;-56
2022/02/26 01:06:20;;;;;;;2.13;0.80;;;;;;;;;;4985626;28;20441;-57
2022/02/26 01:08:47;;;;;;;3.47;1.27;;;;;;;;;;4972024;28;20027;-57
2022/02/26 01:11:13;;;;;;;1.53;1.17;;;;;;;;;;4989916;28;20086;-58
2022/02/26 01:13:40;;;;;;;2.17;1.37;;;;;;;;;;4978851;28;20104;-56
2022/02/26 01:16:06;;;;;;;3.03;1.67;;;;;;;;;;4988074;28;20022;-57
2022/02/26 01:18:33;;;;;;;3.83;2.80;;;;;;;;;;4974727;28;20130;-59
2022/02/26 01:21:00;;;;;;;4.17;3.50;;;;;;;;;;4972399;28;20054;-57
2022/02/26 01:23:26;;;;;;;4.80;3.30;;;;;;;;;;4972193;28;20392;-57
2022/02/26 01:25:53;;;;;;;7.27;4.23;;;;;;;;;;4973060;28;20039;-56
2022/02/26 01:28:20;;;;;;;5.50;4.13;;;;;;;;;;4972160;28;20046;-56
2022/02/26 01:30:47;;;;;;;4.97;4.23;;;;;;;;;;4972468;28;20034;-54
2022/02/26 01:33:13;;;;;;;5.83;4.13;;;;;;;;;;4989063;28;20065;-56
2022/02/26 01:35:40;;;;;;;5.57;3.77;;;;;;;;;;4990344;28;20026;-55
2022/02/26 01:38:07;;;;;;;5.30;4.17;;;;;;;;;;4989692;28;20030;-54
2022/02/26 01:40:33;;;;;;;6.33;4.63;;;;;;;;;;4991217;28;20029;-56
2022/02/26 01:43:00;;;;;;;5.33;4.83;;;;;;;;;;4972594;28;20038;-56
2022/02/26 01:45:26;;;;;;;4.83;4.03;;;;;;;;;;4972325;28;20030;-56
2022/02/26 01:47:56;;;;;;;5.17;4.00;;;;;;;;;;4973558;28;20492;-54
2022/02/26 01:50:23;;;;;;;5.97;4.30;;;;;;;;;;4971829;28;20019;-54
2022/02/26 01:52:49;;;;;;;5.47;4.30;;;;;;;;;;4970418;28;20488;-55
2022/02/26 01:55:16;;;;;;;6.67;4.93;;;;;;;;;;4971954;28;20031;-55
2022/02/26 01:57:44;;;;;;;6.23;4.33;;;;;;;;;;4984944;28;20034;-56
2022/02/26 02:00:11;;;;;;;5.73;4.57;;;;;;;;;;4984370;28;20160;-56
2022/02/26 02:02:37;;;;;;;4.47;4.07;;;;;;;;;;4985829;28;20443;-57
2022/02/26 02:05:04;;;;;;;8.13;5.30;;;;;;;;;;4978751;28;20031;-57
2022/02/26 02:07:31;;;;;;;6.47;5.03;;;;;;;;;;4972611;28;20065;-56
2022/02/26 02:09:58;;;;;;;6.07;5.47;;;;;;;;;;4974793;28;20365;-57
2022/02/26 02:12:25;;;;;;;6.83;5.03;;;;;;;;;;4974717;28;20023;-54
2022/02/26 02:14:52;;;;;;;6.10;5.10;;;;;;;;;;4974779;28;20054;-57
2022/02/26 02:17:21;;;;;;;6.13;4.67;;;;;;;;;;4984005;28;20026;-56
2022/02/26 02:19:48;;;;;;;7.13;5.20;;;;;;;;;;4994019;28;20046;-56
2022/02/26 02:22:17;;;;;;;7.27;5.37;;;;;;;;;;4993176;28;20031;-56
2022/02/26 02:24:44;;;;;;;5.00;4.50;;;;;;;;;;4994080;28;20032;-57
2022/02/26 02:27:12;;;;;;;7.30;4.93;;;;;;;;;;4984420;28;20138;-56
2022/02/26 02:29:38;;;;;;;8.27;5.10;;;;;;;;;;4974842;28;20027;-56
2022/02/26 02:32:05;;;;;;;5.43;4.67;;;;;;;;;;4975479;28;20070;-57
2022/02/26 02:34:31;;;;;;;7.27;4.87;;;;;;;;;;4977547;28;20042;-57
2022/02/26 02:36:58;;;;;;;7.53;5.13;;;;;;;;;;4975970;28;20069;-56
2022/02/26 02:39:24;;;;;;;7.43;5.17;;;;;;;;;;4989825;28;20042;-57
2022/02/26 02:41:51;;;;;;;5.93;4.93;;;;;;;;;;4993878;28;20026;-53
2022/02/26 02:44:17;;;;;;;7.67;5.80;;;;;;;;;;4992998;28;20022;-57
2022/02/26 02:46:45;;;;;;;7.70;5.10;;;;;;;;;;4994074;28;20030;-55
2022/02/26 02:49:11;;;;;;;8.10;5.27;;;;;;;;;;4977262;28;20110;-55
2022/02/26 02:51:38;;;;;;;6.47;5.00;;;;;;;;;;4974548;28;20035;-56
2022/02/26 02:54:05;;;;;;;7.70;5.90;;;;;;;;;;4976970;28;20108;-57
2022/02/26 02:56:32;;;;;;;7.73;5.27;;;;;;;;;;4974607;28;20027;-56
2022/02/26 02:58:58;;;;;;;6.17;5.23;;;;;;;;;;4972765;28;20077;-56
2022/02/26 03:01:25;;;;;;;6.90;5.80;;;;;;;;;;4974722;28;20157;-53
2022/02/26 03:03:52;;;;;;;7.87;5.17;;;;;;;;;;4990107;28;20035;-56
2022/02/26 03:06:18;;;;;;;8.27;6.43;;;;;;;;;;4993804;28;20026;-54
2022/02/26 03:08:46;;;;;;;11.03;6.57;;;;;;;;;;4992829;28;20034;-56
2022/02/26 03:11:13;;;;;;;6.60;5.30;;;;;;;;;;4993763;28;20026;-57
2022/02/26 03:13:41;;;;;;;6.77;5.33;;;;;;;;;;4992681;28;20494;-55
2022/02/26 03:16:08;;;;;;;9.60;5.20;;;;;;;;;;4992500;28;20030;-55
2022/02/26 03:18:35;;;;;;;7.23;5.30;;;;;;;;;;4991609;28;20046;-56
2022/02/26 03:21:01;;;;;;;6.10;5.03;;;;;;;;;;4988482;28;20485;-56
2022/02/26 03:23:28;;;;;;;10.17;5.13;;;;;;;;;;4973479;28;20064;-55
2022/02/26 03:25:54;;;;;;;6.77;4.90;;;;;;;;;;4974095;28;20026;-57
2022/02/26 03:28:21;;;;;;;7.43;5.27;;;;;;;;;;4981424;28;20039;-56
2022/02/26 03:30:47;;;;;;;7.50;4.90;;;;;;;;;;4993167;28;20080;-55
2022/02/26 03:33:13;;;;;;;4.60;4.00;;;;;;;;;;4992190;28;20567;-56
2022/02/26 03:35:40;;;;;;;7.00;4.60;;;;;;;;;;4992464;28;20027;-56
2022/02/26 03:38:06;;;;;;;6.43;4.53;;;;;;;;;;4978416;28;20484;-55
2022/02/26 03:40:33;;;;;;;7.10;5.23;;;;;;;;;;4993056;28;20469;-56
2022/02/26 03:42:59;;;;;;;5.00;4.23;;;;;;;;;;4991056;28;20495;-54
2022/02/26 03:45:26;;;;;;;6.83;4.10;;;;;;;;;;4993075;28;20064;-54
2022/02/26 03:47:52;;;;;;;6.80;4.43;;;;;;;;;;4992011;28;20365;-55
2022/02/26 03:50:31;;;;;;;5.33;4.10;;;;;;;;;;4991008;28;20034;-56
2022/02/26 03:52:57;;;;;;;5.17;3.90;;;;;;;;;;4988829;28;20100;-56
2022/02/26 03:55:24;;;;;;;4.83;3.27;;;;;;;;;;4973336;28;20062;-57
2022/02/26 03:57:51;;;;;;;4.10;3.53;;;;;;;;;;4975072;28;20464;-56
2022/02/26 04:00:26;;;;;;;3.73;3.43;;;;;;;;;;4993066;28;20026;-56
2022/02/26 04:02:53;;;;;;;3.73;3.43;;;;;;;;;;4989105;28;20122;-57
2022/02/26 04:05:20;;;;;;;6.83;3.73;;;;;;;;;;4992537;28;20022;-57
2022/02/26 04:07:46;;;;;;;4.10;2.90;;;;;;;;;;4991173;28;20036;-57
2022/02/26 04:10:13;;;;;;;3.80;3.30;;;;;;;;;;4973482;28;20034;-57
2022/02/26 04:12:39;;;;;;;3.77;3.13;;;;;;;;;;4973173;28;20066;-55
2022/02/26 04:15:06;;;;;;;3.27;2.83;;;;;;;;;;4992614;28;20073;-57
2022/02/26 04:17:33;;;;;;;3.60;2.60;;;;;;;;;;4989884;28;20081;-57
2022/02/26 04:20:00;;;;;;;3.07;2.77;;;;;;;;;;4973250;28;20057;-58
2022/02/26 04:22:27;;;;;;;3.73;3.20;;;;;;;;;;4972728;28;20019;-60
2022/02/26 04:24:53;;;;;;;4.10;2.83;;;;;;;;;;4989644;28;20057;-57
2022/02/26 04:27:20;;;;;;;4.00;2.63;;;;;;;;;;4992544;28;20027;-57
2022/02/26 04:29:47;;;;;;;3.67;3.00;;;;;;;;;;4991639;28;20042;-56
2022/02/26 04:32:13;;;;;;;3.47;2.63;;;;;;;;;;4991081;28;20038;-57
2022/02/26 04:34:40;;;;;;;6.17;2.80;;;;;;;;;;4991041;28;20164;-57
2022/02/26 04:37:24;;;;;;;3.20;2.10;;;;;;;;;;4990857;28;20054;-57
2022/02/26 04:39:52;;;;;;;3.28;2.42;;;;;;;;;;4985102;28;20034;-56
2022/02/26 04:42:19;;;;;;;2.97;1.93;;;;;;;;;;4972696;28;20043;-56
2022/02/26 04:44:46;;;;;;;3.57;2.23;;;;;;;;;;4972711;28;20464;-57
2022/02/26 04:47:12;;;;;;;3.17;1.83;;;;;;;;;;4972838;28;20180;-55
2022/02/26 04:49:39;;;;;;;3.57;2.00;;;;;;;;;;4972512;28;20039;-56
2022/02/26 04:52:06;;;;;;;2.30;2.10;;;;;;;;;;4972615;28;20114;-56
2022/02/26 04:54:33;;;;;;;2.70;2.10;;;;;;;;;;4971874;28;20035;-57
2022/02/26 04:57:00;;;;;;;2.83;2.07;;;;;;;;;;4973628;28;20026;-54
2022/02/26 04:59:27;;;;;;;3.23;1.90;;;;;;;;;;4980327;28;20031;-56
2022/02/26 05:01:54;;;;;;;1.80;1.40;;;;;;;;;;4972644;28;20066;-55
2022/02/26 05:04:21;;;;;;;1.97;1.50;;;;;;;;;;4981817;28;20027;-54
2022/02/26 05:06:47;;;;;;;2.60;2.00;;;;;;;;;;4974168;28;20031;-57
2022/02/26 05:09:14;;;;;;;2.93;1.27;;;;;;;;;;4972207;28;20046;-57
2022/02/26 05:11:41;;;;;;;2.63;1.27;;;;;;;;;;4982667;28;20030;-57
2022/02/26 05:14:08;;;;;;;1.00;0.90;;;;;;;;;;4988210;28;20042;-53
2022/02/26 05:16:34;;;;;;;1.93;1.07;;;;;;;;;;4971779;28;20362;-56
2022/02/26 05:19:01;;;;;;;2.30;1.20;;;;;;;;;;4971843;28;20055;-55
2022/02/26 05:21:28;;;;;;;2.77;1.20;;;;;;;;;;4978524;28;20129;-55
2022/02/26 05:23:54;;;;;;;2.20;1.30;;;;;;;;;;4971952;28;20027;-55
2022/02/26 05:26:21;;;;;;;3.80;1.90;;;;;;;;;;4979116;28;20404;-56
2022/02/26 05:28:48;;;;;;;1.83;0.80;;;;;;;;;;4976239;28;20420;-54
2022/02/26 05:31:15;;;;;;;3.70;1.60;;;;;;;;;;4991331;28;20160;-54
2022/02/26 05:33:42;;;;;;;2.27;1.30;;;;;;;;;;4988574;28;20488;-56
2022/02/26 05:36:08;;;;;;;1.43;1.13;;;;;;;;;;4971861;28;20023;-52
2022/02/26 05:38:35;;;;;;;1.80;1.20;;;;;;;;;;4970500;28;20037;-55
2022/02/26 05:41:02;;;;;;;2.00;1.00;;;;;;;;;;4974495;28;20083;-56
2022/02/26 05:43:28;;;;;;;2.23;1.40;;;;;;;;;;4990697;28;20026;-54
2022/02/26 05:45:55;;;;;;;1.80;1.47;;;;;;;;;;4990253;28;20492;-57
2022/02/26 05:48:21;;;;;;;2.20;1.83;;;;;;;;;;4991097;28;20101;-57
2022/02/26 05:50:48;;;;;;;4.93;2.60;;;;;;;;;;4990078;28;20023;-54
2022/02/26 05:53:15;;;;;;;3.07;2.30;;;;;;;;;;4990890;28;20498;-56
2022/02/26 05:55:41;;;;;;;4.90;2.87;;;;;;;;;;4989883;28;20537;-55
2022/02/26 05:58:08;;;;;;;5.37;2.93;;;;;;;;;;4990161;28;20415;-54
2022/02/26 06:00:35;;;;;;;5.07;2.67;;;;;;;;;;4991672;28;20034;-54
2022/02/26 06:03:01;;;;;;;3.83;2.93;;;;;;;;;;4988962;28;20037;-57
2022/02/26 06:05:28;;;;;;;4.03;2.73;;;;;;;;;;4990714;28;20027;-58
2022/02/26 06:07:54;;;;;;;4.23;3.13;;;;;;;;;;4989968;28;20188;-57
2022/02/26 06:10:21;;;;;;;3.63;3.27;;;;;;;;;;4990877;28;20120;-58
2022/02/26 06:12:48;;;;;;;4.77;3.43;;;;;;;;;;4974963;28;20043;-57
2022/02/26 06:15:14;;;;;;;5.07;3.30;;;;;;;;;;4971309;28;20039;-56
2022/02/26 06:18:05;;;;;;;4.37;3.13;;;;;;;;;;4984366;28;20053;-57
2022/02/26 06:20:31;;;;;;;3.73;2.90;;;;;;;;;;4988915;28;20062;-56
2022/02/26 06:22:58;;;;;;;6.37;3.50;;;;;;;;;;4970454;28;20031;-57
2022/02/26 06:25:26;;;;;;;4.57;3.33;;;;;;;;;;4970028;28;20035;-53
2022/02/26 06:27:52;;;;;;;6.90;3.63;;;;;;;;;;4986128;28;20107;-52
2022/02/26 06:30:21;;;;;;;6.53;4.17;;;;;;;;;;4989673;28;20551;-57
2022/02/26 06:32:47;;;;;;;4.77;3.50;;;;;;;;;;4979766;28;20035;-57
2022/02/26 06:35:14;;;;;;;7.77;4.50;;;;;;;;;;4980104;28;20042;-57
2022/02/26 06:37:41;;;;;;;6.07;4.40;;;;;;;;;;4987494;28;20027;-57
2022/02/26 06:40:08;;;;;;;4.83;4.33;;;;;;;;;;4976500;28;20422;-55
2022/02/26 06:42:34;;;;;;;6.80;4.30;;;;;;;;;;4970674;28;20062;-55
2022/02/26 06:45:01;;;;;;;6.07;3.80;;;;;;;;;;4969660;28;20476;-55
2022/02/26 06:47:27;;;;;;;8.20;4.70;;;;;;;;;;4970880;28;20023;-56
2022/02/26 06:49:53;;;;;;;8.47;4.67;;;;;;;;;;4982814;28;20468;-55
2022/02/26 06:52:20;;;;;;;5.50;4.03;;;;;;;;;;4982953;28;20027;-56
2022/02/26 06:54:47;;;;;;;6.43;4.80;;;;;;;;;;4972248;28;20039;-55
2022/02/26 06:57:14;;;;;;;6.37;4.67;;;;;;;;;;4991684;28;20253;-55
2022/02/26 06:59:40;;;;;;;4.97;4.47;;;;;;;;;;4992332;28;20034;-55
2022/02/26 07:02:07;;;;;;;8.60;4.90;;;;;;;;;;4990932;28;20503;-54
2022/02/26 07:04:42;;;;;;;5.97;4.40;;;;;;;;;;4992381;28;20568;-57
2022/02/26 07:07:08;;;;;;;5.55;3.22;;;;;;;;;;4992646;28;20038;-57
2022/02/26 07:09:46;;;;;;;4.87;3.97;;;;;;;;;;4993804;28;20030;-56
2022/02/26 07:12:13;;;;;;;5.83;3.73;;;;;;;;;;4989543;28;20030;-53
2022/02/26 07:14:39;;;;;;;4.67;3.97;;;;;;;;;;4991615;28;20480;-53
2022/02/26 07:17:06;;;;;;;5.50;3.77;;;;;;;;;;4992376;28;20035;-54
2022/02/26 07:19:33;;;;;;;6.17;3.70;;;;;;;;;;4980069;28;20059;-56
2022/02/26 07:21:59;;;;;;;4.73;3.60;;;;;;;;;;4972763;28;20034;-53
2022/02/26 07:24:26;;;;;;;5.10;3.10;;;;;;;;;;4973549;28;20807;-57
2022/02/26 07:26:53;;;;;;;6.40;3.60;;;;;;;;;;4986312;28;20072;-56
2022/02/26 07:29:19;;;;;;;6.83;4.20;;;;;;;;;;4993052;28;20026;-56
2022/02/26 07:31:45;;;;;;;6.93;3.70;;;;;;;;;;4992088;28;20468;-57
2022/02/26 07:34:11;;;;;;;9.47;4.30;;;;;;;;;;4991863;28;20061;-57
2022/02/26 07:36:37;;;;;;;5.17;4.00;;;;;;;;;;4989116;28;20027;-57
2022/02/26 07:39:03;;;;;;;4.63;3.43;;;;;;;;;;4991994;28;20113;-57
2022/02/26 07:41:29;;;;;;;6.00;3.10;;;;;;;;;;4991924;28;20034;-56
2022/02/26 07:43:55;;;;;;;4.23;3.10;;;;;;;;;;4992915;28;20091;-55
2022/02/26 07:46:22;;;;;;;4.53;3.60;;;;;;;;;;4991727;28;20065;-55
2022/02/26 07:51:52;;;;;;;4.47;3.23;;;;;;;;;;4989655;28;20038;-57
2022/02/26 07:54:18;;;;;;;4.47;3.40;;;;;;;;;;4991425;28;20038;-56
2022/02/26 07:56:44;;;;;;;5.53;3.37;;;;;;;;;;4991595;28;20541;-56
2022/02/26 07:59:10;;;;;;;5.10;2.70;;;;;;;;;;4991399;28;20062;-56
2022/02/26 08:01:36;;;;;;;5.20;2.77;;;;;;;;;;4991660;28;20030;-57
2022/02/26 08:04:03;;;;;;;5.53;2.43;;;;;;;;;;4990434;28;20459;-53
2022/02/26 08:06:28;;;;;;;6.83;3.00;;;;;;;;;;4983632;28;20062;-57
2022/02/26 08:08:56;;;;;;;4.70;2.57;;;;;;;;;;4971976;28;20062;-55
2022/02/26 08:11:28;;;;;;;5.00;2.80;;;;;;;;;;4978646;28;20106;-56
2022/02/26 08:13:54;;;;;;;6.40;2.97;;;;;;;;;;4992588;28;20034;-58
2022/02/26 08:16:21;;;;;;;6.07;3.57;;;;;;;;;;4984722;28;20105;-55
2022/02/26 08:18:47;;;;;;;7.47;4.03;;;;;;;;;;4991829;28;20085;-56
2022/02/26 08:21:12;;;;;;;8.90;3.80;;;;;;;;;;4986170;28;20026;-56
2022/02/26 08:23:38;;;;;;;6.07;4.20;;;;;;;;;;4984631;28;20506;-54
2022/02/26 08:26:05;;;;;;;7.73;4.83;;;;;;;;;;4993499;28;20103;-57
2022/02/26 08:28:31;;;;;;;8.67;4.50;;;;;;;;;;4991047;28;20030;-54
2022/02/26 08:30:57;;;;;;;6.83;4.77;;;;;;;;;;4990562;28;20167;-56
2022/02/26 08:33:23;;;;;;;6.57;4.20;;;;;;;;;;4977090;28;20135;-56
2022/02/26 08:35:49;;;;;;;6.43;4.53;;;;;;;;;;4981341;28;20026;-56
2022/02/26 08:38:15;;;;;;;6.47;4.57;;;;;;;;;;4991605;28;20034;-54
2022/02/26 08:40:42;;;;;;;9.10;4.97;;;;;;;;;;5012666;28;20031;-55
2022/02/26 08:43:08;;;;;;;8.67;4.53;;;;;;;;;;4984762;28;20031;-54
2022/02/26 08:45:34;;;;;;;12.73;5.00;;;;;;;;;;4984716;28;20472;-56
2022/02/26 08:48:00;;;;;;;6.77;4.93;;;;;;;;;;4990589;28;20023;-57
2022/02/26 08:50:26;;;;;;;9.13;4.80;;;;;;;;;;4988387;28;20106;-56
2022/02/26 08:52:52;;;;;;;6.17;4.40;;;;;;;;;;4976534;28;20027;-55
2022/02/26 08:55:18;;;;;;;6.23;3.90;;;;;;;;;;4986088;28;20097;-56
2022/02/26 08:57:44;;;;;;;7.23;4.17;;;;;;;;;;4973578;28;20041;-56
2022/02/26 09:00:11;;;;;;;7.90;4.70;;;;;;;;;;4988029;28;20113;-56
2022/02/26 09:02:37;;;;;;;5.23;3.97;;;;;;;;;;4982084;28;20503;-56
2022/02/26 09:05:04;;;;;;;8.00;3.33;;;;;;;;;;4987132;28;20122;-56
2022/02/26 09:07:30;;;;;;;7.97;3.73;;;;;;;;;;4976550;28;20038;-56
2022/02/26 09:09:56;;;;;;;4.17;3.03;;;;;;;;;;4975814;28;20106;-55
2022/02/26 09:12:22;;;;;;;3.60;2.80;;;;;;;;;;4972104;28;20118;-57
2022/02/26 09:14:48;;;;;;;4.13;3.60;;;;;;;;;;4979759;28;20045;-55
2022/02/26 09:17:15;;;;;;;4.70;3.67;;;;;;;;;;4989568;28;20079;-56
2022/02/26 09:19:41;;;;;;;5.77;3.63;;;;;;;;;;4989481;28;20103;-56
2022/02/26 09:22:07;;;;;;;3.93;2.63;;;;;;;;;;4989196;28;20038;-56
2022/02/26 09:24:33;;;;;;;3.77;2.47;;;;;;;;;;4991476;28;20030;-57
2022/02/26 09:27:00;;;;;;;4.43;3.00;;;;;;;;;;4984724;28;20038;-57
2022/02/26 09:29:26;;;;;;;7.00;2.67;;;;;;;;;;4971850;28;20039;-55
2022/02/26 09:31:53;;;;;;;4.80;2.77;;;;;;;;;;4971829;28;20376;-57
2022/02/26 09:34:19;;;;;;;5.57;3.20;;;;;;;;;;4972055;28;20401;-57
2022/02/26 09:36:46;;;;;;;9.73;4.80;;;;;;;;;;4971891;28;20027;-53
2022/02/26 09:39:13;;;;;;;6.23;3.70;;;;;;;;;;4984957;28;20482;-56
2022/02/26 09:41:39;;;;;;;5.50;3.37;;;;;;;;;;4998670;28;20076;-52
2022/02/26 09:44:06;;;;;;;5.77;3.50;;;;;;;;;;4990992;28;20438;-55
2022/02/26 09:46:32;;;;;;;4.17;3.10;;;;;;;;;;4986192;28;20400;-52
2022/02/26 09:48:58;;;;;;;5.00;3.50;;;;;;;;;;4971625;28;20123;-54
2022/02/26 09:51:24;;;;;;;3.40;3.10;;;;;;;;;;4971296;28;20489;-56
2022/02/26 09:53:51;;;;;;;6.30;3.37;;;;;;;;;;4975083;28;20077;-55
2022/02/26 09:56:17;;;;;;;5.87;3.83;;;;;;;;;;4982802;28;20027;-55
2022/02/26 09:58:43;;;;;;;7.37;3.87;;;;;;;;;;4971096;28;20439;-56
2022/02/26 10:01:09;;;;;;;5.43;4.33;;;;;;;;;;4971493;28;20023;-56
2022/02/26 10:03:45;;;;;;;5.90;3.77;;;;;;;;;;4983330;28;20019;-57
2022/02/26 10:06:14;;;;;;;5.37;4.03;;;;;;;;;;4971495;28;20035;-57
2022/02/26 10:08:45;;;;;;;6.60;3.80;;;;;;;;;;4990781;28;20472;-56
2022/02/26 10:11:22;;;;;;;6.00;3.53;;;;;;;;;;4990335;28;20053;-55
2022/02/26 10:13:48;;;;;;;3.27;2.10;;;;;;;;;;4989526;28;20031;-56
2022/02/26 10:16:15;;;;;;;4.67;2.73;;;;;;;;;;4988625;28;20113;-54
2022/02/26 10:18:54;;;;;;;3.60;2.07;;;;;;;;;;4969880;28;20049;-53
2022/02/26 10:21:31;;;;;;;3.13;1.47;;;;;;;;;;4978754;28;20377;-58
2022/02/26 10:23:57;;;;;;;4.23;2.07;;;;;;;;;;4986696;28;20384;-54
2022/02/26 10:26:27;;;;;;;4.90;1.20;;;;;;;;;;4989711;28;20023;-57
2022/02/26 10:29:06;;;;;;;3.07;1.40;;;;;;;;;;4992162;28;20553;-56
2022/02/26 10:32:01;;;;;;;2.13;1.47;;;;;;;;;;4991214;28;20076;-57
2022/02/26 10:34:33;;;;;;;1.65;1.30;;;;;;;;;;4992441;28;20053;-57
2022/02/26 10:37:02;;;;;;;2.17;0.90;;;;;;;;;;4987376;28;20109;-58
2022/02/26 10:39:29;;;;;;;3.00;1.10;;;;;;;;;;4974417;28;20031;-58
2022/02/26 10:41:55;;;;;;;2.92;0.40;;;;;;;;;;4974268;28;20030;-55
2022/02/26 10:44:22;;;;;;;1.20;0.40;;;;;;;;;;4974226;28;20055;-56
2022/02/26 10:46:48;;;;;;;0.77;0.30;;;;;;;;;;4976954;28;20030;-53
2022/02/26 10:49:15;;;;;;;0.55;0.30;;;;;;;;;;4992840;28;20034;-53
2022/02/26 10:51:42;;;;;;;0.57;0.30;;;;;;;;;;4991147;28;20173;-55
2022/02/26 10:54:10;;;;;;;0.85;0.22;;;;;;;;;;4974481;28;20422;-57
2022/02/26 10:56:44;;;;;;;0.75;0.30;;;;;;;;;;4974091;28;20027;-54
2022/02/26 10:59:11;;;;;;;0.20;0.20;;;;;;;;;;4974289;28;20034;-56
2022/02/26 11:01:38;;;;;;;0.65;0.20;;;;;;;;;;4974987;28;20266;-57
2022/02/26 11:04:04;;;;;;;0.90;0.70;;;;;;;;;;4990593;28;20034;-57
2022/02/26 11:06:32;;;;;;;0.85;0.45;;;;;;;;;;4992704;28;20388;-55
2022/02/26 11:08:58;;;;;;;0.10;0.10;;;;;;;;;;4993080;28;20030;-57
2022/02/26 11:11:24;;;;;;;0.55;0.22;;;;;;;;;;4993666;28;20053;-54
2022/02/26 11:13:51;;;;;;;0.08;0.08;;;;;;;;;;4974599;28;20125;-56
2022/02/26 11:16:18;;;;;;;0.25;0.10;;;;;;;;;;4980495;28;20030;-58
2022/02/26 11:18:46;;;;;;;2.15;0.20;;;;;;;;;;5004029;28;20106;-55
2022/02/26 11:21:14;;;;;;;0.80;0.40;;;;;;;;;;5011522;28;20022;-56
2022/02/26 11:24:03;;;;;;;0.20;0.15;;;;;;;;;;4977806;28;20113;-52
2022/02/26 11:26:29;;;;;;;2.97;1.77;;;;;;;;;;4973796;28;20094;-52
2022/02/26 11:28:57;;;;;;;2.25;1.08;;;;;;;;;;4991006;28;20030;-55
2022/02/26 11:31:26;;;;;;;0.60;0.20;;;;;;;;;;4991852;28;20050;-56
2022/02/26 11:33:52;;;;;;;3.92;0.55;;;;;;;;;;4992174;28;20446;-57
2022/02/26 11:36:18;;;;;;;0.45;0.20;;;;;;;;;;4988511;28;20440;-56
2022/02/26 11:38:45;;;;;;;1.25;0.25;;;;;;;;;;4973728;28;20038;-55
2022/02/26 11:41:26;;;;;;;0.22;0.10;;;;;;;;;;4974279;28;20041;-52
2022/02/26 11:43:59;;;;;;;0.60;0.25;;;;;;;;;;4992971;28;20075;-51
2022/02/26 11:46:27;;;;;;;0.13;0.10;;;;;;;;;;4988941;28;20022;-53
2022/02/26 11:48:54;;;;;;;0.30;0.20;;;;;;;;;;4993160;28;20030;-54
2022/02/26 11:51:20;;;;;;;0.80;0.68;;;;;;;;;;4988542;28;20077;-53
2022/02/26 11:53:47;;;;;;;0.73;0.30;;;;;;;;;;4973322;28;20043;-55
2022/02/26 11:56:13;;;;;;;0.32;0.20;;;;;;;;;;4975093;28;20536;-57
2022/02/26 11:58:39;;;;;;;0.22;0.10;;;;;;;;;;4992799;28;20064;-56
2022/02/26 12:01:07;;;;;;;0.40;0.20;;;;;;;;;;4990562;28;20471;-55
2022/02/26 12:03:43;;;;;;;1.50;1.00;;;;;;;;;;4973495;28;20031;-56
2022/02/26 12:06:11;;;;;;;1.10;0.60;;;;;;;;;;4973190;28;20051;-54
2022/02/26 12:08:37;;;;;;;0.40;0.30;;;;;;;;;;4973173;28;20027;-58
2022/02/26 12:11:05;;;;;;;1.13;0.40;;;;;;;;;;4980079;28;20487;-56
2022/02/26 12:13:34;;;;;;;0.75;0.30;;;;;;;;;;4971732;28;20039;-58
2022/02/26 12:16:19;;;;;;;0.85;0.25;;;;;;;;;;4979766;28;20023;-56
2022/02/26 12:18:47;;;;;;;1.15;0.20;;;;;;;;;;4991612;28;20046;-56
2022/02/26 12:21:16;;;;;;;0.57;0.40;;;;;;;;;;4990509;28;20495;-57
2022/02/26 12:23:43;;;;;;;0.90;0.28;;;;;;;;;;4972864;28;20027;-56
2022/02/26 12:26:11;;;;;;;0.63;0.30;;;;;;;;;;4973187;28;20094;-58
2022/02/26 12:28:37;;;;;;;0.10;0.10;;;;;;;;;;4992192;28;20028;-57
2022/02/26 12:31:05;;;;;;;1.02;0.30;;;;;;;;;;4990888;28;20026;-55
2022/02/26 12:33:37;;;;;;;0.40;0.10;;;;;;;;;;4978106;28;20050;-57
2022/02/26 12:36:12;;;;;;;0.85;0.40;;;;;;;;;;4971383;28;20031;-56
2022/02/26 12:38:52;;;;;;;1.13;0.40;;;;;;;;;;4971493;28;20084;-57
2022/02/26 12:41:28;;;;;;;1.42;0.52;;;;;;;;;;4972785;28;20027;-57
2022/02/26 12:43:54;;;;;;;2.88;1.70;;;;;;;;;;4989942;28;20018;-57
2022/02/26 12:46:20;;;;;;;0.40;0.20;;;;;;;;;;4990308;28;20426;-58
2022/02/26 12:48:46;;;;;;;0.30;0.15;;;;;;;;;;4955357;28;20566;-57
2022/02/26 12:51:13;;;;;;;0.75;0.10;;;;;;;;;;4971989;28;20045;-57
2022/02/26 12:53:39;;;;;;;0.32;0.10;;;;;;;;;;4991511;28;20088;-58
2022/02/26 12:56:05;;;;;;;0.35;0.17;;;;;;;;;;4991848;28;20400;-56
2022/02/26 12:58:34;;;;;;;0.57;0.10;;;;;;;;;;4974712;28;20038;-56
2022/02/26 13:01:00;;;;;;;0.60;0.17;;;;;;;;;;4992016;28;20026;-57
2022/02/26 13:03:26;;;;;;;1.95;0.50;;;;;;;;;;4973465;28;20037;-56
2022/02/26 13:05:53;;;;;;;0.40;0.20;;;;;;;;;;4972037;28;20034;-56
2022/02/26 13:08:19;;;;;;;0.20;0.20;;;;;;;;;;4972445;28;20027;-58
2022/02/26 13:10:46;;;;;;;0.10;0.10;;;;;;;;;;4972259;28;20107;-56
2022/02/26 13:13:16;;;;;;;0.45;0.30;;;;;;;;;;4987437;28;20375;-58
2022/02/26 13:15:44;;;;;;;1.35;0.50;;;;;;;;;;4988977;28;20030;-57
2022/02/26 13:18:10;;;;;;;0.70;0.32;;;;;;;;;;4975638;28;20034;-55
2022/02/26 13:20:37;;;;;;;0.30;0.30;;;;;;;;;;4971758;28;20061;-56
2022/02/26 13:23:05;;;;;;;1.58;0.35;;;;;;;;;;4985552;28;20043;-55
2022/02/26 13:25:32;;;;;;;1.73;0.80;;;;;;;;;;4991339;28;20035;-55
2022/02/26 13:27:58;;;;;;;1.02;0.20;;;;;;;;;;4977456;28;20098;-56
2022/02/26 13:30:26;;;;;;;1.50;0.28;;;;;;;;;;4976532;28;20038;-57
2022/02/26 13:32:53;;;;;;;0.30;0.20;;;;;;;;;;4990112;28;20365;-56
2022/02/26 13:35:20;;;;;;;0.47;0.30;;;;;;;;;;4991152;28;20392;-54
2022/02/26 13:37:47;;;;;;;0.30;0.20;;;;;;;;;;4978199;28;20035;-57
2022/02/26 13:40:14;;;;;;;0.75;0.65;;;;;;;;;;4987517;28;20026;-56
2022/02/26 13:42:41;;;;;;;5.10;0.98;;;;;;;;;;4989463;28;20030;-56
2022/02/26 13:45:14;;;;;;;1.77;0.63;;;;;;;;;;5001990;28;20030;-55
2022/02/26 13:47:42;;;;;;;1.75;0.55;;;;;;;;;;4988830;28;20038;-57
2022/02/26 13:50:09;;;;;;;1.10;0.50;;;;;;;;;;4971692;28;20027;-56
2022/02/26 13:52:37;;;;;;;1.60;1.10;;;;;;;;;;4960299;28;20125;-56
2022/02/26 13:55:05;;;;;;;1.25;0.70;;;;;;;;;;4971516;28;20503;-56
2022/02/26 13:57:33;;;;;;;0.30;0.20;;;;;;;;;;4979735;28;20029;-58
2022/02/26 14:00:07;;;;;;;0.82;0.15;;;;;;;;;;4990915;28;20034;-57
2022/02/26 14:02:34;;;;;;;0.52;0.30;;;;;;;;;;4988835;28;20480;-57
2022/02/26 14:05:01;;;;;;;1.33;0.38;;;;;;;;;;4990569;28;20052;-55
2022/02/26 14:07:33;;;;;;;0.17;0.17;;;;;;;;;;4982964;28;20039;-57
2022/02/26 14:09:59;;;;;;;0.15;0.13;;;;;;;;;;4971381;28;20022;-58
2022/02/26 14:12:28;;;;;;;0.40;0.22;;;;;;;;;;4977084;28;20507;-56
2022/02/26 14:14:57;;;;;;;1.75;0.28;;;;;;;;;;4990443;28;20084;-58
2022/02/26 14:17:27;;;;;;;0.28;0.10;;;;;;;;;;4989602;28;20030;-57
2022/02/26 14:19:56;;;;;;;1.83;1.08;;;;;;;;;;4990499;28;20096;-56
2022/02/26 14:22:25;;;;;;;0.70;0.13;;;;;;;;;;4988880;28;20042;-56
2022/02/26 14:24:51;;;;;;;1.08;0.10;;;;;;;;;;4989663;28;20392;-57
2022/02/26 14:27:22;;;;;;;0.15;0.10;;;;;;;;;;4988555;28;20026;-56
2022/02/26 14:29:48;;;;;;;0.28;0.13;;;;;;;;;;4990911;28;20049;-57
2022/02/26 14:32:17;;;;;;;0.00;0.00;;;;;;;;;;4989346;28;20053;-56
2022/02/26 14:34:43;;;;;;;0.22;0.10;;;;;;;;;;4985998;28;20042;-57
2022/02/26 14:37:09;;;;;;;0.00;0.00;;;;;;;;;;4990611;28;20030;-54
2022/02/26 14:39:36;;;;;;;1.90;0.10;;;;;;;;;;4975555;28;20038;-56
2022/02/26 14:42:02;;;;;;;0.10;0.00;;;;;;;;;;4971157;28;20108;-56
2022/02/26 14:44:31;;;;;;;0.57;0.20;;;;;;;;;;4983636;28;20102;-57
2022/02/26 14:46:58;;;;;;;1.65;0.10;;;;;;;;;;4990293;28;20503;-57
2022/02/26 14:49:24;;;;;;;0.57;0.30;;;;;;;;;;4989361;28;20027;-56
2022/02/26 14:51:51;;;;;;;1.40;0.30;;;;;;;;;;4987789;28;20034;-54
2022/02/26 14:54:18;;;;;;;1.05;0.70;;;;;;;;;;4981813;28;20038;-57
2022/02/26 14:56:44;;;;;;;1.83;0.93;;;;;;;;;;4980527;28;20077;-55
2022/02/26 14:59:11;;;;;;;2.63;1.52;;;;;;;;;;4971951;28;20080;-57
2022/02/26 15:01:38;;;;;;;2.30;0.60;;;;;;;;;;4974953;28;20073;-57
2022/02/26 15:04:05;;;;;;;0.82;0.10;;;;;;;;;;4973156;28;20058;-57